Time;durP1;ratioP1;P1;durP2;ratioP2;P2;SDS_P1;SDS_P2;PMS_P1;PMS_P2;Temp;Humidity;BMP_temperature;BMP_pressure;BME280_temperature;BME280_humidity;BME280_pressure;Samples;Min_cycle;Max_cycle;Signal;HPM_P1;HPM_P2
2021/11/12 00:13:29;;;;;;;9.35;6.95;;;6.50;72.20;;;;;;4954802;29;20086;-60
2021/11/12 00:16:00;;;;;;;10.50;6.85;;;6.50;73.00;;;;;;4952194;28;20031;-60
2021/11/12 00:18:28;;;;;;;7.20;5.78;;;6.50;72.50;;;;;;4943217;28;20107;-60
2021/11/12 00:20:56;;;;;;;7.65;5.78;;;6.50;72.70;;;;;;4951618;29;20024;-60
2021/11/12 00:23:23;;;;;;;9.20;6.40;;;6.50;72.70;;;;;;4947490;28;20050;-60
2021/11/12 00:25:50;;;;;;;8.77;6.10;;;6.50;72.80;;;;;;4947672;28;20042;-60
2021/11/12 00:28:19;;;;;;;11.23;6.72;;;6.40;72.80;;;;;;4939725;29;20058;-60
2021/11/12 00:41:23;;;;;;;10.63;6.28;;;6.40;73.10;;;;;;4929255;29;20035;-60
2021/11/12 00:43:52;;;;;;;8.32;5.97;;;6.40;73.10;;;;;;4953533;28;20034;-60
2021/11/12 00:46:23;;;;;;;8.80;6.25;;;6.40;73.20;;;;;;4943263;28;20043;-60
2021/11/12 00:48:53;;;;;;;10.15;6.50;;;6.40;73.20;;;;;;4951472;28;20519;-59
2021/11/12 00:56:24;;;;;;;10.70;6.43;;;6.40;73.20;;;;;;4943105;29;20082;-59
2021/11/12 00:58:51;;;;;;;8.63;5.80;;;6.40;73.30;;;;;;4949967;28;20107;-60
2021/11/12 01:01:18;;;;;;;8.80;6.85;;;6.40;73.30;;;;;;4949758;28;20028;-60
2021/11/12 01:03:45;;;;;;;9.88;6.78;;;6.40;73.40;;;;;;4954621;28;20105;-60
2021/11/12 01:06:10;;;;;;;9.73;6.45;;;6.40;73.40;;;;;;4950364;28;20460;-60
2021/11/12 01:08:36;;;;;;;7.97;5.60;;;6.40;73.50;;;;;;4944401;28;20035;-60
2021/11/12 01:11:03;;;;;;;8.02;6.07;;;6.40;73.80;;;;;;4948765;28;20044;-60
2021/11/12 01:13:30;;;;;;;9.02;6.10;;;6.40;73.50;;;;;;4948426;28;20031;-60
2021/11/12 01:15:56;;;;;;;8.35;5.55;;;6.40;73.70;;;;;;4943916;28;20033;-60
2021/11/12 01:18:21;;;;;;;7.95;6.60;;;6.30;73.50;;;;;;4948426;28;20110;-60
2021/11/12 01:20:48;;;;;;;8.85;6.38;;;6.30;73.80;;;;;;4945086;28;20028;-60
2021/11/12 01:23:14;;;;;;;8.68;6.13;;;6.30;73.90;;;;;;4956893;28;20024;-60
2021/11/12 01:25:40;;;;;;;8.65;6.30;;;6.30;73.90;;;;;;4942434;28;20121;-60
2021/11/12 01:28:07;;;;;;;8.35;6.03;;;6.30;73.80;;;;;;4943030;29;20496;-59
2021/11/12 01:30:33;;;;;;;10.80;6.97;;;6.30;74.00;;;;;;4943266;28;20034;-60
2021/11/12 01:32:59;;;;;;;10.55;6.38;;;6.20;73.90;;;;;;4944513;28;20027;-60
2021/11/12 01:35:25;;;;;;;8.95;6.03;;;6.20;74.10;;;;;;4949704;28;20560;-60
2021/11/12 01:37:53;;;;;;;7.38;5.65;;;6.20;74.00;;;;;;4946875;29;20027;-59
2021/11/12 01:40:20;;;;;;;8.65;6.72;;;6.20;74.00;;;;;;4950231;28;20055;-60
2021/11/12 01:43:25;;;;;;;8.35;5.82;;;6.20;74.10;;;;;;4949056;29;20486;-60
2021/11/12 01:53:36;;;;;;;9.80;6.47;;;6.20;74.20;;;;;;4952390;28;20110;-60
2021/11/12 02:01:22;;;;;;;9.57;6.85;;;6.20;74.40;;;;;;4957921;29;20119;-60
2021/11/12 02:03:50;;;;;;;8.43;6.40;;;6.10;74.40;;;;;;4958022;28;20078;-60
2021/11/12 02:06:19;;;;;;;10.02;6.85;;;6.10;74.40;;;;;;4950371;28;20480;-60
2021/11/12 02:08:46;;;;;;;11.02;6.18;;;6.10;74.30;;;;;;4949858;28;20499;-60
2021/11/12 02:11:12;;;;;;;9.45;6.60;;;6.10;74.40;;;;;;4953988;29;20082;-60
2021/11/12 02:13:40;;;;;;;9.05;6.43;;;6.10;74.50;;;;;;4951861;28;20531;-60
2021/11/12 02:16:07;;;;;;;9.85;6.55;;;6.10;74.40;;;;;;4954202;29;20079;-59
2021/11/12 02:18:37;;;;;;;14.65;7.75;;;6.10;74.40;;;;;;4949423;29;20110;-60
2021/11/12 02:24:11;;;;;;;7.65;5.95;;;6.10;74.40;;;;;;4949230;28;20038;-60
2021/11/12 02:26:37;;;;;;;10.35;6.65;;;6.20;74.50;;;;;;4948999;28;20436;-60
2021/11/12 02:29:06;;;;;;;11.15;6.70;;;6.10;74.40;;;;;;4942955;29;20047;-60
2021/11/12 02:31:32;;;;;;;8.50;6.43;;;6.10;74.40;;;;;;4939974;29;20179;-60
2021/11/12 02:34:05;;;;;;;9.07;6.88;;;6.10;74.50;;;;;;4941054;29;20023;-60
2021/11/12 02:36:31;;;;;;;7.72;5.72;;;6.10;74.60;;;;;;4939535;29;20024;-60
2021/11/12 02:38:57;;;;;;;9.43;6.50;;;6.10;74.70;;;;;;4943534;29;20086;-59
2021/11/12 02:41:24;;;;;;;8.50;6.65;;;6.10;74.60;;;;;;4950028;28;20028;-60
2021/11/12 02:43:51;;;;;;;8.95;6.15;;;6.10;74.60;;;;;;4947600;28;20031;-60
2021/11/12 02:46:21;;;;;;;8.90;6.43;;;6.10;74.60;;;;;;4946188;28;20487;-59
2021/11/12 02:48:48;;;;;;;9.60;6.47;;;6.10;74.60;;;;;;4942994;29;20027;-60
2021/11/12 02:51:24;;;;;;;8.95;5.95;;;6.20;74.40;;;;;;4941237;28;20106;-58
2021/11/12 02:53:50;;;;;;;10.95;6.40;;;6.20;74.20;;;;;;4956268;28;20031;-60
2021/11/12 02:56:29;;;;;;;10.48;6.45;;;6.20;73.90;;;;;;4950493;28;20031;-60
2021/11/12 02:59:09;;;;;;;11.20;7.22;;;6.30;73.90;;;;;;4946313;28;20086;-60
2021/11/12 03:01:38;;;;;;;9.10;6.35;;;6.30;73.80;;;;;;4958237;28;20074;-60
2021/11/12 03:04:05;;;;;;;11.98;7.68;;;6.30;73.60;;;;;;4948984;28;20031;-60
2021/11/12 03:06:31;;;;;;;11.55;7.35;;;6.30;73.40;;;;;;4957018;28;20051;-60
2021/11/12 03:09:01;;;;;;;10.05;6.50;;;6.30;73.50;;;;;;4955055;28;20510;-60
2021/11/12 03:11:27;;;;;;;9.90;7.35;;;6.30;73.20;;;;;;4942545;29;20067;-60
2021/11/12 03:13:52;;;;;;;9.75;7.50;;;6.30;73.20;;;;;;4950332;28;20452;-60
2021/11/12 03:16:19;;;;;;;10.43;7.03;;;6.30;73.20;;;;;;4952881;28;20124;-60
2021/11/12 03:18:45;;;;;;;10.35;7.35;;;6.30;73.10;;;;;;4952365;28;20431;-59
2021/11/12 03:21:15;;;;;;;11.05;7.05;;;6.30;73.20;;;;;;4940074;28;20016;-60
2021/11/12 03:23:52;;;;;;;10.05;6.72;;;6.30;73.20;;;;;;4951291;28;20024;-60
2021/11/12 03:26:25;;;;;;;11.23;6.88;;;6.30;73.10;;;;;;4938548;29;20476;-60
2021/11/12 04:04:39;;;;;;;9.93;6.93;;;5.90;73.90;;;;;;4954354;29;20493;-60
2021/11/12 04:07:00;;;;;;;12.00;7.13;;;5.90;74.70;;;;;;4940128;29;20035;-59
2021/11/12 04:18:31;;;;;;;8.65;6.78;;;5.70;74.50;;;;;;4944676;29;20108;-58
2021/11/12 05:45:14;;;;;;;11.70;7.95;;;5.70;76.20;;;;;;4950311;29;20077;-60
2021/11/12 05:50:16;;;;;;;13.30;8.55;;;5.80;76.20;;;;;;4953308;28;20514;-60
2021/11/12 05:55:27;;;;;;;9.85;7.90;;;5.90;76.00;;;;;;4945803;29;20051;-60
2021/11/12 05:57:52;;;;;;;14.15;9.07;;;5.90;75.90;;;;;;4944823;28;20040;-59
2021/11/12 06:00:19;;;;;;;13.73;9.10;;;6.00;75.80;;;;;;4962728;28;20031;-60
2021/11/12 06:02:45;;;;;;;14.40;9.40;;;6.10;75.90;;;;;;4943789;28;20467;-60
2021/11/12 06:05:12;;;;;;;12.40;9.38;;;6.10;75.80;;;;;;4946645;29;20054;-60
2021/11/12 06:07:38;;;;;;;10.32;8.32;;;6.20;75.70;;;;;;4957771;28;20090;-59
2021/11/12 06:10:05;;;;;;;12.57;8.90;;;6.30;75.60;;;;;;4957329;28;20023;-58
2021/11/12 06:12:30;;;;;;;13.02;8.60;;;6.30;75.50;;;;;;4956143;28;20027;-60
2021/11/12 06:14:56;;;;;;;11.70;8.57;;;6.40;75.40;;;;;;4956836;28;20031;-59
2021/11/12 06:17:22;;;;;;;13.02;8.63;;;6.40;75.20;;;;;;4956495;28;20058;-61
2021/11/12 06:19:48;;;;;;;11.90;8.18;;;6.50;74.90;;;;;;4956252;28;20024;-59
2021/11/12 06:22:13;;;;;;;15.25;8.48;;;6.60;74.80;;;;;;4961482;28;20098;-60
2021/11/12 06:24:39;;;;;;;11.18;8.15;;;6.70;74.50;;;;;;4954168;28;20034;-59
2021/11/12 06:27:07;;;;;;;13.18;8.38;;;6.70;74.20;;;;;;4955152;29;20066;-60
2021/11/12 06:29:33;;;;;;;15.15;10.10;;;6.80;74.20;;;;;;4950367;28;20027;-60
2021/11/12 06:31:59;;;;;;;12.77;9.25;;;6.80;74.10;;;;;;4951378;28;20055;-60
2021/11/12 06:34:26;;;;;;;14.27;9.45;;;6.90;73.80;;;;;;4949160;28;20035;-59
2021/11/12 06:36:52;;;;;;;11.80;8.85;;;7.00;73.60;;;;;;4952245;28;20041;-60
2021/11/12 06:39:19;;;;;;;12.65;9.10;;;7.00;73.50;;;;;;4946146;29;20051;-59
2021/11/12 06:49:30;;;;;;;13.95;9.93;;;7.00;73.20;;;;;;4954228;28;20058;-58
2021/11/12 06:51:57;;;;;;;12.75;9.93;;;7.00;73.20;;;;;;4954483;28;20059;-59
2021/11/12 06:54:24;;;;;;;16.60;11.32;;;7.00;73.10;;;;;;4959828;28;20116;-60
2021/11/12 06:56:50;;;;;;;17.05;11.27;;;7.10;73.20;;;;;;4957041;28;20023;-60
2021/11/12 06:59:16;;;;;;;15.25;10.38;;;7.10;73.20;;;;;;4956025;28;20039;-58
2021/11/12 07:01:42;;;;;;;15.75;11.45;;;7.10;73.00;;;;;;4953904;28;20034;-60
2021/11/12 07:04:08;;;;;;;16.05;10.88;;;7.20;73.20;;;;;;4952175;28;20902;-60
2021/11/12 07:06:36;;;;;;;13.20;9.93;;;7.20;72.80;;;;;;4953807;28;20486;-60
2021/11/12 07:09:03;;;;;;;12.43;9.32;;;7.20;72.80;;;;;;4959315;28;20105;-60
2021/11/12 07:11:29;;;;;;;15.88;10.90;;;7.30;72.60;;;;;;4949095;28;20385;-60
2021/11/12 07:13:55;;;;;;;14.40;11.15;;;7.30;72.70;;;;;;4950555;28;20034;-60
2021/11/12 07:16:20;;;;;;;16.45;11.10;;;7.30;72.60;;;;;;4947468;28;20484;-59
2021/11/12 07:18:46;;;;;;;17.08;10.55;;;7.40;72.60;;;;;;4949688;29;20497;-60
2021/11/12 07:21:12;;;;;;;15.95;11.20;;;7.50;72.60;;;;;;4950843;28;20106;-58
2021/11/12 07:23:38;;;;;;;15.77;11.90;;;7.60;72.50;;;;;;4947033;28;22471;-60
2021/11/12 07:26:04;;;;;;;16.05;11.35;;;7.60;72.40;;;;;;4952647;29;20428;-60
2021/11/12 07:28:30;;;;;;;15.77;11.35;;;7.70;72.10;;;;;;4949263;28;20035;-60
2021/11/12 07:30:56;;;;;;;16.75;11.25;;;7.70;71.90;;;;;;4944221;28;20479;-60
2021/11/12 07:33:23;;;;;;;18.33;11.75;;;7.70;71.80;;;;;;4956629;28;20035;-60
2021/11/12 07:35:54;;;;;;;19.50;12.57;;;7.80;71.70;;;;;;4953038;28;20034;-60
2021/11/12 07:41:21;;;;;;;19.65;12.23;;;7.90;71.50;;;;;;4940479;28;20646;-60
2021/11/12 07:49:01;;;;;;;15.50;12.02;;;8.10;71.20;;;;;;4941621;28;20205;-60
2021/11/12 07:51:27;;;;;;;15.93;11.13;;;8.10;71.00;;;;;;4945984;28;20038;-60
2021/11/12 07:53:54;;;;;;;19.88;13.23;;;8.20;70.70;;;;;;4943249;28;20035;-60
2021/11/12 07:56:21;;;;;;;17.60;11.15;;;8.20;70.70;;;;;;4946375;28;20031;-60
2021/11/12 07:58:46;;;;;;;16.75;12.65;;;8.20;70.70;;;;;;4949357;28;20475;-58
2021/11/12 08:01:12;;;;;;;18.52;13.52;;;8.20;70.80;;;;;;4949034;28;20093;-60
2021/11/12 08:03:39;;;;;;;16.88;12.68;;;8.30;71.50;;;;;;4948241;28;20033;-60
2021/11/12 08:06:07;;;;;;;17.25;13.43;;;8.30;70.70;;;;;;4951139;28;20034;-60
2021/11/12 08:08:36;;;;;;;19.80;13.60;;;8.40;70.50;;;;;;4947840;28;20400;-59
2021/11/12 08:11:09;;;;;;;20.38;13.43;;;8.40;70.50;;;;;;4949568;28;20035;-60
2021/11/12 08:35:25;;;;;;;21.50;15.25;;;9.00;69.10;;;;;;4937435;29;20444;-60
2021/11/12 08:42:33;;;;;;;18.10;13.77;;;9.10;69.10;;;;;;4942447;28;20079;-60
2021/11/12 08:45:05;;;;;;;20.35;14.25;;;9.20;69.00;;;;;;4944076;28;20039;-60
2021/11/12 08:47:35;;;;;;;19.90;14.40;;;9.20;68.80;;;;;;4946024;29;20385;-60
2021/11/12 08:50:02;;;;;;;17.75;13.10;;;9.30;68.60;;;;;;4942128;28;20031;-60
2021/11/12 08:52:28;;;;;;;21.00;14.52;;;9.30;68.50;;;;;;4942266;29;20031;-60
2021/11/12 08:54:54;;;;;;;20.17;14.75;;;9.40;68.60;;;;;;4942476;28;20090;-60
2021/11/12 08:57:20;;;;;;;18.48;12.90;;;9.40;68.50;;;;;;4950792;28;20042;-60
2021/11/12 08:59:50;;;;;;;19.98;13.63;;;9.50;68.40;;;;;;4948033;29;20027;-60
2021/11/12 09:02:19;;;;;;;18.50;14.15;;;9.50;68.10;;;;;;4945121;29;20067;-60
2021/11/12 09:04:47;;;;;;;22.23;14.82;;;9.60;68.20;;;;;;4941627;28;20035;-60
2021/11/12 09:07:14;;;;;;;15.50;12.48;;;9.60;68.00;;;;;;4939898;28;20435;-60
2021/11/12 09:09:41;;;;;;;20.15;13.75;;;9.60;67.90;;;;;;4937736;28;20032;-60
2021/11/12 09:12:11;;;;;;;19.10;12.88;;;9.70;68.00;;;;;;4937412;29;20388;-60
2021/11/12 09:14:42;;;;;;;21.08;14.32;;;9.80;67.90;;;;;;4938965;28;20067;-60
2021/11/12 09:17:09;;;;;;;19.63;14.90;;;9.80;67.80;;;;;;4939759;29;20028;-60
2021/11/12 09:19:44;;;;;;;20.73;13.30;;;9.80;67.70;;;;;;4944473;28;20039;-60
2021/11/12 09:22:15;;;;;;;18.95;12.65;;;9.90;67.60;;;;;;4942093;28;20035;-60
2021/11/12 09:24:43;;;;;;;19.80;13.10;;;9.90;68.20;;;;;;4950420;29;20023;-60
2021/11/12 09:27:09;;;;;;;19.38;13.63;;;10.00;67.60;;;;;;4944308;29;20499;-60
2021/11/12 09:29:35;;;;;;;19.17;14.43;;;10.00;67.50;;;;;;4943506;28;20424;-60
2021/11/12 09:32:01;;;;;;;18.42;14.43;;;10.10;67.30;;;;;;4940599;28;20055;-60
2021/11/12 09:34:28;;;;;;;22.88;14.98;;;10.10;67.20;;;;;;4944831;28;20565;-60
2021/11/12 09:36:54;;;;;;;19.63;14.13;;;10.10;67.10;;;;;;4942499;28;20019;-60
2021/11/12 09:39:20;;;;;;;20.55;15.38;;;10.20;67.10;;;;;;4943186;28;20058;-59
2021/11/12 09:41:46;;;;;;;23.60;15.70;;;10.30;67.20;;;;;;4943643;28;20023;-60
2021/11/12 09:44:12;;;;;;;21.00;16.08;;;10.30;67.10;;;;;;4942241;28;20038;-60
2021/11/12 09:46:38;;;;;;;21.60;15.73;;;10.30;67.10;;;;;;4934802;28;20220;-60
2021/11/12 09:49:05;;;;;;;21.15;15.30;;;10.30;67.10;;;;;;4941533;28;20031;-60
2021/11/12 09:51:32;;;;;;;22.35;16.42;;;10.30;67.20;;;;;;4942691;29;20032;-59
2021/11/12 09:53:57;;;;;;;21.20;16.58;;;10.40;67.20;;;;;;4945508;28;20032;-60
2021/11/12 09:56:23;;;;;;;24.48;17.58;;;10.40;67.20;;;;;;4943611;28;20546;-60
2021/11/12 09:58:50;;;;;;;21.92;16.35;;;10.40;67.20;;;;;;4941656;28;20031;-60
2021/11/12 10:01:16;;;;;;;22.90;17.30;;;10.40;67.10;;;;;;4944496;29;20034;-60
2021/11/12 10:03:45;;;;;;;21.67;16.27;;;10.50;67.30;;;;;;4944060;28;20035;-60
2021/11/12 10:06:18;;;;;;;22.50;16.90;;;10.50;67.20;;;;;;4944682;28;20505;-60
2021/11/12 10:08:44;;;;;;;24.65;17.48;;;10.60;67.20;;;;;;4944979;28;20035;-60
2021/11/12 10:11:18;;;;;;;25.48;17.63;;;10.60;67.20;;;;;;4948085;28;20167;-60
2021/11/12 10:13:47;;;;;;;21.75;15.43;;;10.60;67.30;;;;;;4945504;29;20039;-60
2021/11/12 10:19:04;;;;;;;24.52;17.27;;;10.60;67.20;;;;;;4946046;28;20422;-60
2021/11/12 10:21:34;;;;;;;21.73;16.55;;;10.60;67.40;;;;;;4951108;28;20360;-60
2021/11/12 10:24:06;;;;;;;22.17;16.52;;;10.60;67.30;;;;;;4949820;28;20097;-59
2021/11/12 10:26:34;;;;;;;23.02;17.52;;;10.60;66.90;;;;;;4946237;29;20063;-60
2021/11/12 10:29:03;;;;;;;22.67;17.55;;;10.60;66.80;;;;;;4953157;28;20041;-60
2021/11/12 10:31:41;;;;;;;25.23;18.98;;;10.60;66.80;;;;;;4947398;29;20395;-60
2021/11/12 10:34:15;;;;;;;24.58;17.85;;;10.60;66.90;;;;;;4951432;28;20032;-60
2021/11/12 10:36:55;;;;;;;22.33;16.20;;;10.60;67.00;;;;;;4947600;28;20379;-60
2021/11/12 10:39:33;;;;;;;21.50;15.80;;;10.60;66.70;;;;;;4946226;28;20134;-60
2021/11/12 10:42:06;;;;;;;22.55;15.48;;;10.60;66.70;;;;;;4942803;29;20032;-60
2021/11/12 10:44:37;;;;;;;20.58;15.77;;;10.60;66.70;;;;;;4941319;29;20035;-60
2021/11/12 10:47:04;;;;;;;23.58;16.38;;;10.60;66.60;;;;;;4944874;28;20115;-60
2021/11/12 10:49:37;;;;;;;23.50;17.58;;;10.60;66.60;;;;;;4944207;28;20035;-60
2021/11/12 10:52:13;;;;;;;23.67;15.98;;;10.60;66.50;;;;;;4946410;28;20495;-60
2021/11/12 10:54:52;;;;;;;23.23;16.35;;;10.60;66.50;;;;;;4945694;28;20037;-60
2021/11/12 10:57:24;;;;;;;22.80;16.17;;;10.60;66.30;;;;;;4950728;29;20400;-60
2021/11/12 11:00:07;;;;;;;22.85;16.58;;;10.70;66.40;;;;;;4952702;28;20432;-60
2021/11/12 11:02:43;;;;;;;21.98;16.00;;;10.70;66.30;;;;;;4940670;28;20055;-60
2021/11/12 11:05:21;;;;;;;20.67;15.68;;;10.80;66.00;;;;;;4947067;28;20043;-60
2021/11/12 11:07:58;;;;;;;20.48;15.63;;;10.80;65.80;;;;;;4948420;29;20042;-60
2021/11/12 11:10:31;;;;;;;20.63;15.95;;;10.80;65.80;;;;;;4946060;28;20429;-60
2021/11/12 11:13:12;;;;;;;22.83;16.35;;;10.80;65.70;;;;;;4946818;28;20138;-60
2021/11/12 11:15:47;;;;;;;22.35;16.42;;;10.80;65.60;;;;;;4952042;28;20107;-60
2021/11/12 11:18:26;;;;;;;21.50;16.20;;;10.90;65.70;;;;;;4948412;28;20478;-59
2021/11/12 11:20:52;;;;;;;21.40;15.70;;;10.90;65.50;;;;;;4950065;29;20678;-59
2021/11/12 11:23:20;;;;;;;22.17;15.85;;;10.90;65.40;;;;;;4955832;28;20071;-60
2021/11/12 11:25:53;;;;;;;21.88;15.98;;;10.90;65.30;;;;;;4939377;28;20028;-59
2021/11/12 11:28:19;;;;;;;20.08;14.68;;;10.90;65.30;;;;;;4946508;28;20027;-60
2021/11/12 11:30:46;;;;;;;22.60;15.73;;;10.90;65.90;;;;;;4952463;28;20391;-60
2021/11/12 11:33:14;;;;;;;20.02;15.32;;;10.90;65.20;;;;;;4949407;28;20969;-60
2021/11/12 11:35:40;;;;;;;22.58;16.10;;;10.90;65.20;;;;;;4951999;28;20019;-60
2021/11/12 11:38:06;;;;;;;22.08;16.27;;;10.90;65.20;;;;;;4947788;29;20345;-60
2021/11/12 11:40:36;;;;;;;23.05;16.55;;;10.90;65.20;;;;;;4952387;29;20050;-60
2021/11/12 11:43:02;;;;;;;22.52;16.27;;;10.90;65.20;;;;;;4945465;28;20429;-60
2021/11/12 11:45:28;;;;;;;21.95;16.10;;;10.90;65.20;;;;;;4952542;28;20034;-60
2021/11/12 11:47:55;;;;;;;20.90;16.23;;;11.00;65.40;;;;;;4951414;28;20027;-60
2021/11/12 11:50:27;;;;;;;23.27;17.20;;;11.00;65.40;;;;;;4951512;28;20510;-60
2021/11/12 11:52:53;;;;;;;24.85;17.55;;;10.90;65.40;;;;;;4960358;28;20529;-60
2021/11/12 11:55:37;;;;;;;23.60;18.30;;;10.90;65.50;;;;;;4951694;28;20086;-60
2021/11/12 11:58:33;;;;;;;25.60;18.10;;;11.00;65.60;;;;;;4953508;29;20464;-60
2021/11/12 12:01:29;;;;;;;24.90;18.17;;;11.00;65.70;;;;;;4948517;28;20106;-60
2021/11/12 12:04:15;;;;;;;22.90;16.75;;;11.10;65.70;;;;;;4952575;28;20081;-60
2021/11/12 12:06:43;;;;;;;25.92;18.27;;;11.10;66.20;;;;;;4942854;29;20047;-60
2021/11/12 12:09:14;;;;;;;23.90;17.80;;;11.10;65.50;;;;;;4944806;29;20031;-60
2021/11/12 12:11:40;;;;;;;22.05;16.88;;;11.20;65.60;;;;;;4943692;28;20043;-60
2021/11/12 12:14:16;;;;;;;23.25;17.20;;;11.20;65.40;;;;;;4940669;28;20501;-60
2021/11/12 12:16:42;;;;;;;25.10;17.25;;;11.20;65.20;;;;;;4938973;28;20035;-60
2021/11/12 12:20:04;;;;;;;22.73;18.52;;;11.30;65.40;;;;;;4946348;28;20082;-60
2021/11/12 13:25:51;;;;;;;25.30;16.53;;;11.70;63.50;;;;;;4943781;29;20047;-60
2021/11/12 13:28:27;;;;;;;21.27;15.85;;;11.70;63.50;;;;;;4945736;28;20281;-60
2021/11/12 13:30:59;;;;;;;23.60;16.23;;;11.70;63.60;;;;;;4942162;29;20436;-60
2021/11/12 13:33:44;;;;;;;22.10;15.45;;;11.70;63.90;;;;;;4944420;29;20035;-60
2021/11/12 13:36:20;;;;;;;21.35;15.55;;;11.70;64.00;;;;;;4942012;29;20024;-60
2021/11/12 13:38:56;;;;;;;22.95;17.13;;;11.70;64.10;;;;;;4941891;29;22470;-60
2021/11/12 13:41:43;;;;;;;25.83;17.15;;;11.70;64.10;;;;;;4943320;29;20023;-60
2021/11/12 13:44:16;;;;;;;25.98;16.77;;;11.70;64.10;;;;;;4945343;28;20035;-60
2021/11/12 13:46:49;;;;;;;22.08;16.40;;;11.70;64.10;;;;;;4943970;28;20121;-59
2021/11/12 13:49:53;;;;;;;22.00;17.00;;;11.80;64.10;;;;;;4942729;29;20387;-60
2021/11/12 13:52:23;;;;;;;23.40;16.98;;;11.80;64.00;;;;;;4923679;29;20039;-60
2021/11/12 13:55:07;;;;;;;23.80;18.00;;;11.90;63.90;;;;;;4926020;29;20043;-60
2021/11/12 13:57:34;;;;;;;24.38;18.27;;;11.90;63.80;;;;;;4936331;28;20035;-60
2021/11/12 14:00:10;;;;;;;23.67;17.20;;;11.80;63.70;;;;;;4947345;28;20038;-60
2021/11/12 14:02:53;;;;;;;25.00;18.13;;;11.80;63.70;;;;;;4948142;28;20460;-60
2021/11/12 14:05:19;;;;;;;24.23;17.90;;;11.80;63.80;;;;;;4948538;28;20016;-60
2021/11/12 14:07:45;;;;;;;25.67;18.40;;;11.80;63.80;;;;;;4949740;28;20034;-60
2021/11/12 14:10:14;;;;;;;23.75;18.38;;;11.70;63.90;;;;;;4951135;29;20083;-60
2021/11/12 14:12:55;;;;;;;24.25;17.83;;;11.70;63.80;;;;;;4942968;28;20035;-60
2021/11/12 14:18:27;;;;;;;27.50;18.83;;;11.70;64.00;;;;;;4948389;28;20502;-60
2021/11/12 14:21:26;;;;;;;27.20;19.98;;;11.70;64.10;;;;;;4948438;28;20100;-60
2021/11/12 14:24:20;;;;;;;28.48;20.75;;;11.70;64.20;;;;;;4945736;28;20043;-59
2021/11/12 14:40:34;;;;;;;28.73;21.45;;;11.70;64.60;;;;;;4947408;28;20098;-60
2021/11/12 14:45:54;;;;;;;25.17;19.23;;;11.70;64.80;;;;;;4945711;29;20086;-60
2021/11/12 14:48:33;;;;;;;26.83;20.33;;;11.80;64.80;;;;;;4949106;28;20026;-60
2021/11/12 14:56:13;;;;;;;24.83;18.40;;;11.70;65.00;;;;;;4942340;28;20047;-60
2021/11/12 14:58:45;;;;;;;24.67;17.92;;;11.80;65.10;;;;;;4947368;29;20050;-60
2021/11/12 15:01:26;;;;;;;26.73;18.40;;;11.70;65.00;;;;;;4947541;29;20038;-60
2021/11/12 15:03:53;;;;;;;23.27;16.85;;;11.70;65.20;;;;;;4943499;28;20517;-60
2021/11/12 15:06:22;;;;;;;25.25;18.17;;;11.70;65.40;;;;;;4946903;28;20027;-62
2021/11/12 15:08:52;;;;;;;22.48;18.05;;;11.70;66.00;;;;;;4950990;28;20039;-60
2021/11/12 15:11:22;;;;;;;22.35;17.42;;;11.70;65.40;;;;;;4951734;28;20071;-60
2021/11/12 15:13:49;;;;;;;21.92;16.77;;;11.70;65.50;;;;;;4951720;28;20498;-60
2021/11/12 15:16:20;;;;;;;25.50;17.90;;;11.70;65.70;;;;;;4948128;28;20463;-60
2021/11/12 15:18:46;;;;;;;23.07;17.13;;;11.70;65.70;;;;;;4949454;28;20032;-60
2021/11/12 15:21:16;;;;;;;21.08;16.30;;;11.70;66.30;;;;;;4939446;28;20035;-60
2021/11/12 15:23:57;;;;;;;24.40;18.52;;;11.70;65.90;;;;;;4950698;29;20085;-60
2021/11/12 15:29:12;;;;;;;24.00;17.88;;;11.70;65.80;;;;;;4952388;28;20066;-60
2021/11/12 15:32:26;;;;;;;30.02;21.50;;;11.70;65.90;;;;;;4946661;28;20050;-60
2021/11/12 15:34:29;;;;;;;24.35;19.17;;;11.70;65.90;;;;;;4940932;28;20051;-60
2021/11/12 15:37:11;;;;;;;26.45;20.20;;;11.70;65.90;;;;;;4947312;28;20081;-60
2021/11/12 15:39:41;;;;;;;28.92;19.65;;;11.80;65.90;;;;;;4950844;28;20432;-60
2021/11/12 15:42:27;;;;;;;24.08;17.45;;;11.70;65.90;;;;;;4951347;28;20650;-60
2021/11/12 15:44:56;;;;;;;25.25;18.65;;;11.80;65.90;;;;;;4952610;28;20027;-60
2021/11/12 15:49:49;;;;;;;25.92;19.65;;;11.70;65.90;;;;;;4950167;28;20162;-60
2021/11/12 15:52:29;;;;;;;27.85;20.10;;;11.80;66.10;;;;;;4949350;28;20031;-60
2021/11/12 16:00:25;;;;;;;28.13;20.95;;;11.80;66.00;;;;;;4949940;29;20129;-59
2021/11/12 16:08:57;;;;;;;25.60;19.92;;;11.80;66.10;;;;;;4944291;28;20110;-60
2021/11/12 16:19:21;;;;;;;31.55;21.90;;;11.70;66.20;;;;;;4947995;28;20039;-59
2021/11/12 16:22:06;;;;;;;28.30;20.20;;;11.60;66.30;;;;;;4949484;28;20039;-60
2021/11/12 16:27:08;;;;;;;32.17;22.48;;;11.60;66.40;;;;;;4950472;28;20078;-61
2021/11/12 16:29:38;;;;;;;29.10;21.15;;;11.50;66.50;;;;;;4950270;28;20032;-60
2021/11/12 16:32:08;;;;;;;29.13;21.17;;;11.50;66.60;;;;;;4953323;29;20035;-60
2021/11/12 16:34:44;;;;;;;30.05;21.02;;;11.50;66.70;;;;;;4954253;28;20035;-60
2021/11/12 16:37:11;;;;;;;26.58;19.35;;;11.50;66.90;;;;;;4955900;28;20027;-59
2021/11/12 16:58:06;;;;;;;27.08;19.60;;;11.10;68.20;;;;;;4948710;29;20029;-60
2021/11/12 17:03:26;;;;;;;24.75;18.88;;;11.00;68.50;;;;;;4942292;29;20440;-60
2021/11/12 17:11:17;;;;;;;31.83;19.67;;;10.90;68.90;;;;;;4949037;28;20046;-60
2021/11/12 17:14:04;;;;;;;28.33;20.17;;;10.90;69.10;;;;;;4947913;29;20094;-59
2021/11/12 18:01:35;;;;;;;31.55;22.25;;;10.50;71.10;;;;;;4943839;29;20067;-60
2021/11/12 18:02:28;;;;;;;34.97;22.00;;;10.40;71.30;;;;;;4948756;29;20026;-60
2021/11/12 21:48:22;;;;;;;18.27;13.45;;;9.40;71.50;;;;;;4954551;29;20037;-59
2021/11/12 21:50:52;;;;;;;19.63;13.40;;;9.50;71.80;;;;;;4949052;28;20043;-59
2021/11/12 21:53:22;;;;;;;20.08;13.15;;;9.50;71.90;;;;;;4935443;29;20112;-60
2021/11/12 21:55:51;;;;;;;17.85;13.32;;;9.50;71.90;;;;;;4948431;29;20027;-59
2021/11/12 21:58:18;;;;;;;19.02;13.30;;;9.50;71.80;;;;;;4940242;28;20102;-60
2021/11/12 22:00:46;;;;;;;17.52;12.60;;;9.50;71.60;;;;;;4954851;28;20030;-60
2021/11/12 22:03:15;;;;;;;22.38;14.15;;;9.50;71.50;;;;;;4955008;28;20055;-60
2021/11/12 22:05:42;;;;;;;17.25;13.35;;;9.50;71.30;;;;;;4951337;28;20098;-60
2021/11/12 22:08:08;;;;;;;17.10;13.02;;;9.50;71.20;;;;;;4946806;29;20022;-60
2021/11/12 22:10:34;;;;;;;18.20;13.35;;;9.60;71.10;;;;;;4935393;29;20476;-60
2021/11/12 22:13:00;;;;;;;17.15;13.07;;;9.60;70.90;;;;;;4936465;29;20094;-60
2021/11/12 22:15:25;;;;;;;15.85;11.90;;;9.50;70.70;;;;;;4945007;28;20027;-60
2021/11/12 22:17:51;;;;;;;17.27;12.25;;;9.60;70.80;;;;;;4939105;29;20040;-60
2021/11/12 22:20:18;;;;;;;15.15;11.05;;;9.50;70.40;;;;;;4939061;29;20035;-60
2021/11/12 22:22:45;;;;;;;16.10;11.80;;;9.50;70.00;;;;;;4943537;29;20028;-60
2021/11/12 22:25:11;;;;;;;19.13;11.75;;;9.50;69.80;;;;;;4948412;28;20035;-60
2021/11/12 22:27:37;;;;;;;15.13;11.45;;;9.50;69.80;;;;;;4944771;28;20020;-59
2021/11/12 22:30:04;;;;;;;15.65;11.57;;;9.50;69.80;;;;;;4957984;28;20050;-59
2021/11/12 22:32:30;;;;;;;15.63;11.68;;;9.40;69.70;;;;;;4958124;28;20047;-60
2021/11/12 22:34:56;;;;;;;16.83;11.35;;;9.50;70.00;;;;;;4945669;28;20052;-60
2021/11/12 22:37:22;;;;;;;15.50;10.48;;;9.40;70.10;;;;;;4942531;28;20024;-60
2021/11/12 22:39:48;;;;;;;15.05;11.00;;;9.50;69.90;;;;;;4938536;29;20052;-60
2021/11/12 22:42:15;;;;;;;14.38;10.82;;;9.50;69.70;;;;;;4938606;29;20024;-60
2021/11/12 22:44:41;;;;;;;13.20;10.07;;;9.50;69.70;;;;;;4938644;29;20031;-60
2021/11/12 22:47:07;;;;;;;16.05;10.55;;;9.50;69.30;;;;;;4938602;29;20032;-60
2021/11/12 22:49:33;;;;;;;15.80;10.20;;;9.50;69.10;;;;;;4945956;28;20071;-60
2021/11/12 22:51:59;;;;;;;14.23;10.18;;;9.40;69.70;;;;;;4941232;28;20028;-60
2021/11/12 22:54:24;;;;;;;15.73;11.02;;;9.50;69.20;;;;;;4950074;28;20039;-60
2021/11/12 22:56:51;;;;;;;15.45;11.15;;;9.40;69.20;;;;;;4944449;28;20082;-60
2021/11/12 22:59:17;;;;;;;15.95;11.18;;;9.50;69.40;;;;;;4948778;29;20030;-60
2021/11/12 23:01:43;;;;;;;14.30;9.65;;;9.50;69.30;;;;;;4954959;28;20019;-59
2021/11/12 23:04:09;;;;;;;15.02;10.82;;;9.50;69.30;;;;;;4938216;29;20028;-60
2021/11/12 23:06:35;;;;;;;14.23;9.88;;;9.50;69.20;;;;;;4951033;28;20501;-60
2021/11/12 23:09:01;;;;;;;15.43;10.65;;;9.40;69.10;;;;;;4944263;28;20031;-59
2021/11/12 23:11:26;;;;;;;16.13;11.20;;;9.40;69.20;;;;;;4943460;29;20071;-60
2021/11/12 23:13:53;;;;;;;16.20;10.18;;;9.40;69.20;;;;;;4938219;29;20059;-60
2021/11/12 23:16:20;;;;;;;15.77;10.75;;;9.40;69.30;;;;;;4938281;29;20107;-60
2021/11/12 23:18:47;;;;;;;16.85;11.93;;;9.40;69.60;;;;;;4938227;29;20028;-60
2021/11/12 23:21:13;;;;;;;14.10;10.27;;;9.40;69.50;;;;;;4938178;29;20039;-60
2021/11/12 23:23:41;;;;;;;18.45;12.15;;;9.40;69.70;;;;;;4942817;28;20087;-60